Weather at St Louis Lambert International Airport

Public forecast

Using degrees Fahrenheit for public forecast. Weather courtesy of forecast.io.

Current aviation weather report (METAR) for St Louis Lambert International Airport

Retrieved 2021/05/06 05:51 UTC (43 minutes ago):

KSTL 060551Z 16004KT 10SM FEW120 BKN250 13/07 A3014 RMK AO2 SLP203 T01330067 10189 20122 402060072 56005

Aviation forecast (TAF) for St Louis Lambert International Airport

Retrieved 2021/05/06 06:21 UTC (13 minutes ago):

TAF KSTL 060520Z 0606/0712 VRB04KT P6SM BKN250 FM061400 26009KT P6SM OVC060 FM061600 29011G17KT P6SM -SHRA VCTS OVC027CB FM061900 32012G20KT P6SM OVC035 FM070000 33009KT P6SM SCT250